x

Los Angeles Pier F, Ca - 9410670 (pfxc1) Weather Station

2:54 - Fri 3rd Jul 2015 All times are PDT. -7 hours from GMT.

  • Wind
    10mph, 15mph gusts
  • Air Temp 74°f
  • Sea Pressure 1011.2mb
  • Los Angeles Pier F, Ca - 9410670
  • Los Angeles Pier F, Ca - 9410670

More Historic Weather Station data

Upgrade to MSW Pro to gain access to the past 30 days of data for over 8000 Wavebouys and Weather Stations around the globe.

Join Pro

Comparision Forecast

View Surf forecast
   
ven. 07/03 2:54 10 15 mph 1011.2mb 74f
2:48 14 17 mph 1011.2mb 73f
2:42 16 20 mph 1011.1mb 73f
1:30 14 16 mph 1012.3mb 71f
1:18 16 17 mph 1012.3mb 70f
12:54 15 16 mph 1012.5mb 70f
12:24 14 15 mph 1013.1mb 68f
12:18 13 14 mph 1013.2mb 68f
12:00 13 14 mph 1013.5mb 67f
11:48 11 13 mph 1013.9mb 67f
11:30 9 10 mph 1014.1mb 66f
11:24 9 11 mph 1014mb 66f
11:18 9 11 mph 1014mb 66f
10:30 10 13 mph 1014.3mb 66f
10:18 9 10 mph 1014.2mb 65f
10:12 10 11 mph 1014.3mb 66f
10:06 10 11 mph 1014.5mb 66f
10:00 9 10 mph 1014.6mb 66f
9:48 7 8 mph 1014.5mb 65f
9:42 7 8 mph 1014.5mb 65f
9:36 6 7 mph 1014.5mb 66f
9:30 7 8 mph 1014.6mb 66f
9:24 7 8 mph 1014.5mb 65f
9:18 8 9 mph 1014.5mb 65f
8:54 6 7 mph 1014.4mb 65f
8:48 5 7 mph 1014.4mb 65f
8:36 5 6 mph 1014.4mb 65f
8:24 6
mph
1014.3mb 65f
8:06 6 8 mph 1014.1mb 65f
8:00 8 10 mph 1014mb 65f
7:48 8 9 mph 1014mb 65f
7:36 7 8 mph 1013.9mb 65f
7:30 5 6 mph 1013.9mb 64f
7:24 5
mph
1013.9mb 64f
7:18 3 5 mph 1013.9mb 64f
7:12 3
mph
1013.9mb 64f
7:06 3
mph
1013.7mb 64f
6:54 1 2 mph 1013.7mb 64f
6:42  -  2 mph 1013.7mb 64f
6:36  -  1 mph 1013.7mb 64f
6:24 2 3 mph 1013.6mb 64f
6:18 3 5 mph 1013.5mb 64f
6:06 2 3 mph 1013.6mb 64f
5:42 2 3 mph 1013.6mb 63f
5:24 5 6 mph 1013.4mb 64f
5:12 3 5 mph 1013.3mb 64f
5:00 3 5 mph 1013.3mb 64f
4:54 2 5 mph 1013.3mb 64f
4:48 2 3 mph 1013.1mb 64f
4:42 2 3 mph 1013.1mb 65f
4:36 2 5 mph 1013.1mb 65f
4:30 3 5 mph 1013.1mb 65f
4:12 2 6 mph 1013.1mb 64f
4:06 2 5 mph 1013.1mb 64f
4:00  -  2 mph 1013.1mb 63f
3:54  -  1 mph 1013.1mb 63f
3:42 1
mph
1013.2mb 64f
3:24 1 2 mph 1013.1mb 64f
3:18 2
mph
1013.1mb 64f
2:48 5 6 mph 1013.2mb 64f
2:30 3 5 mph - 64f
2:18 5 6 mph 1013.1mb 63f
2:06 1 2 mph 1013.1mb 64f
2:00 2 3 mph 1013.2mb 64f
1:54 5
mph
1013.3mb 64f
1:36 8 9 mph 1013.2mb 64f
1:18 5 6 mph 1013.2mb 64f
1:12 5
mph
1013.3mb 64f
12:48 3 6 mph 1013.2mb 64f
12:36 6 7 mph 1013.4mb 64f
12:30 6 7 mph 1013.4mb 64f
12:18 6
mph
1013.3mb 65f
12:12 5
mph
1013.4mb 65f
12:00 6 7 mph 1013.2mb 65f
jeu. 07/02 11:48 5
mph
- 65f
11:30 5 6 mph 1013.4mb 65f
11:24 5 6 mph 1013.4mb 65f
11:18 7
mph
1013.5mb 65f
11:12 7
mph
1013.4mb 65f
11:06 5 7 mph 1013.4mb 66f
10:42 2 3 mph 1013.3mb 65f
10:36 3 6 mph 1013.3mb 65f
10:06 7 8 mph 1013.3mb 68f
10:00 7 8 mph 1013.2mb 68f
9:48 7 8 mph 1013.2mb 67f
9:42 6 8 mph 1013.3mb 67f
9:36 6 7 mph 1013.2mb 68f
9:30 6 8 mph 1013.2mb 67f
9:18 6 9 mph 1013mb 68f
9:12 6 7 mph 1012.8mb 68f
9:06 8 10 mph 1012.6mb 68f
9:00 10 13 mph 1012.5mb 68f
8:42 13 16 mph 1012.2mb 69f
8:12 10 13 mph 1012mb 71f
7:42 9 10 mph 1011.8mb 73f
7:36 5 10 mph 1011.8mb 72f
7:30 5 7 mph 1011.8mb 73f
7:18 3 7 mph 1011.8mb 74f
7:06 7 10 mph 1011.7mb 75f
7:00 5 8 mph 1011.7mb 75f
6:54 6 8 mph 1011.8mb 76f
6:24 10 13 mph 1011.5mb 73f
6:12 9 11 mph 1011.5mb 74f
6:06 7 8 mph 1011.3mb 75f
5:48 5 6 mph 1011.6mb 78f
5:12 11 14 mph 1011.9mb 75f
4:42 10 13 mph 1012.3mb 76f
4:36 10 14 mph 1012.3mb 76f
4:24 11 14 mph 1012.4mb 76f
4:18 13 15 mph 1012.3mb 76f
4:06 11 14 mph 1012.4mb 77f
4:00 11 14 mph 1012.5mb 76f
3:54 13 15 mph 1012.5mb 76f
3:48 10 11 mph 1012.6mb 76f
3:36 13 16 mph 1012.9mb 75f
3:12 13 15 mph 1013.1mb 73f
2:54 13 14 mph 1013.2mb 73f
2:48 14 15 mph 1013.2mb 73f
2:24 14 15 mph 1013.5mb 72f
2:12 14 15 mph 1013.6mb 71f
2:00 11 14 mph 1013.9mb 73f
1:54 14 15 mph 1014mb 72f
1:30 16 17 mph 1014.3mb 70f
1:24 16 17 mph 1014.3mb 70f
1:18 13 15 mph 1014.4mb 71f
1:12 13
mph
1014.6mb 70f
1:00 13 14 mph 1014.6mb 69f
12:30 10 11 mph 1014.6mb 70f
12:24 10 11 mph 1014.7mb 70f
12:06 9 10 mph 1014.7mb 71f
11:30 8 10 mph 1015mb 72f
11:24 9 10 mph 1014.9mb 72f
11:12 11 13 mph 1014.9mb 71f
10:48 9 10 mph 1014.9mb 71f
10:42 9 11 mph 1014.8mb 71f
10:36 10 11 mph 1014.8mb 70f
10:30 9 10 mph 1014.7mb 70f
10:24 9 10 mph 1014.8mb 70f
10:18 10 11 mph 1015.1mb 69f
10:06 10 11 mph 1014.7mb 68f
9:42 9 10 mph 1014.6mb 70f
9:18  -  mph 1014.8mb 71f
9:00  -  mph - 71f
8:54  -  mph 1014.9mb 70f
8:42  -  mph 1014.9mb 69f
8:36  -  mph 1014.9mb 68f
8:30  -  mph 1014.8mb 68f
8:18 1 2 mph 1014.7mb 69f
8:06 2 3 mph 1014.7mb 69f
7:54  -  2 mph 1014.5mb 68f
7:48  -  2 mph 1014.5mb 67f
7:42 2 3 mph 1014.4mb 68f
7:18 1 2 mph 1014.2mb 67f
7:06  -  1 mph 1014mb 67f
7:00  -  2 mph 1014mb 67f
6:54  -  2 mph 1013.9mb 67f
6:42 2 3 mph 1013.8mb 66f
6:36 3 5 mph 1013.7mb 66f
6:30 1 5 mph 1013.6mb 67f
5:54 6 7 mph 1013.6mb 67f
5:36 6 7 mph 1013.6mb 67f
5:24 3 8 mph 1013.5mb 67f
5:18 3 5 mph 1013.5mb 68f
5:06 2 3 mph 1013.5mb 68f
4:54 2 3 mph 1013.4mb 68f
4:42 2
mph
1013.2mb 67f
4:36 1 2 mph 1013.2mb 67f
4:30 3
mph
1013.1mb 67f
4:24 3 5 mph 1013.1mb 67f
4:18 3 5 mph 1012.9mb 67f
4:12 3 5 mph 1012.9mb 68f
4:06 6 7 mph 1012.8mb 68f
4:00 6 7 mph 1012.9mb 68f
3:48 6
mph
1013mb 68f
3:42 6
mph
1013mb 68f
3:24 6 7 mph 1013mb 68f
3:18 5 7 mph 1013mb 68f
3:06 6
mph
1013.1mb 68f
2:54 7
mph
1013mb 68f
2:36 5 6 mph 1013.1mb 68f
2:24 1 2 mph 1013.1mb 67f
2:18 1 3 mph 1013.3mb 67f
2:12 2 3 mph 1013.3mb 66f
2:06 2
mph
1013.4mb 66f
2:00 3 5 mph 1013.4mb 66f
1:54 5 6 mph 1013.4mb 65f
1:48 5 6 mph 1013.4mb 66f
1:42 3 5 mph 1013.3mb 66f
1:36 2 3 mph 1013.2mb 66f
1:30 1 2 mph 1013.2mb 67f
1:24 1 2 mph 1013.4mb 67f
1:18 2
mph
1013.4mb 66f
1:00  -  mph 1013.2mb 66f
12:48 2 3 mph 1013.3mb 66f
12:30 3 5 mph 1013.4mb 66f
12:24 3 5 mph 1013.4mb 66f
12:06 6 7 mph 1013.4mb 66f
mer. 07/01 11:48 3 5 mph 1013.2mb 66f
11:36 5 6 mph 1013.2mb 66f
11:12 1 2 mph 1013.3mb 67f
11:06 1 2 mph 1013.2mb 67f
11:00  -  2 mph 1013.4mb 68f
10:42 3 5 mph 1013.4mb 67f
10:00 5
mph
1013.2mb 69f
9:54 5 7 mph 1013.1mb 69f
9:48 5 6 mph 1013.1mb 69f
9:42 6 8 mph 1013mb 69f
9:30 8 11 mph 1012.9mb 69f
9:24 8 10 mph 1012.8mb 70f
9:06 9 11 mph 1012.6mb 70f
9:00 7 8 mph 1012.6mb 70f
8:54 7 8 mph 1012.7mb 71f
8:48 8 10 mph 1012.6mb 71f
8:42 8 10 mph 1012.5mb 71f
8:30 5 6 mph 1012.3mb 71f
7:54 8 9 mph 1012.2mb 68f
7:30 10 11 mph 1012mb 67f
7:00 7 8 mph 1011.5mb 70f
6:54 8 10 mph 1011.4mb 71f
6:18 2 3 mph 1011mb 71f
6:00 3 6 mph 1010.8mb 74f
5:54 5 7 mph 1010.9mb 75f
5:06 8 10 mph 1010.8mb 75f
5:00 8 10 mph 1010.7mb 76f
4:36 10 11 mph 1010.6mb 77f
4:24 6 8 mph 1010.7mb 74f
4:06 9 10 mph 1010.7mb 73f
3:54 6 8 mph 1010.8mb 75f
3:48 3 5 mph 1010.8mb 72f
3:42 3 5 mph 1010.8mb 75f
3:06 8 9 mph 1011.6mb 71f
2:54 9 10 mph 1011.8mb 70f
2:42 14 15 mph 1011.7mb 69f
2:36 13 16 mph 1011.6mb 69f
2:30 14 15 mph 1011.7mb 70f
2:24 11 13 mph 1011.7mb 70f
2:18 9 11 mph 1011.7mb 70f
2:00 11 14 mph 1011.5mb 70f
1:48 11 13 mph 1011.2mb 69f
1:18 9 11 mph 1011.3mb 72f
1:06 9 10 mph 1011.7mb 71f
1:00 11 13 mph 1011.7mb 69f
12:54 9 10 mph 1011.8mb 70f
12:48 10 11 mph 1011.7mb 69f
12:42 11 13 mph 1011.7mb 69f
12:30 6 10 mph 1011.7mb 74f
12:24 7 10 mph 1011.9mb 77f
12:18 7 11 mph 1011.6mb 75f
11:54 7
mph
1012mb 71f
11:24 2 3 mph 1012.4mb 71f
11:18 2 3 mph 1012.4mb 70f
11:12 2 3 mph 1012.3mb 72f
11:06 1 2 mph 1012.4mb 74f
11:00 1 2 mph 1012.3mb 72f
10:42 3 5 mph 1012.7mb 69f
10:36 2 6 mph 1012.6mb 68f
10:30 3 5 mph 1012.5mb 68f
10:24 5 6 mph 1012.5mb 68f
10:18 5 6 mph 1012.5mb 67f
9:54 3 5 mph 1012.6mb 67f
9:18 6 7 mph 1012.3mb 68f
9:12 6 7 mph 1012.3mb 68f
9:00 6
mph
1012.5mb 69f
8:54 7 8 mph 1012.4mb 69f
8:42 7 8 mph 1012mb 70f
8:36 5 6 mph 1011.9mb 70f
8:30 5 7 mph 1012.1mb 70f
8:24 5 6 mph 1012mb 71f
8:18 6
mph
1012.2mb 70f
8:06 3 5 mph 1011.8mb 69f
7:18 6 8 mph 1011.1mb 69f
7:06 5 6 mph 1011.3mb 68f
6:54 5 6 mph 1011.3mb 67f
6:42 6
mph
1011.5mb 66f
6:30 5 6 mph 1011.5mb 66f
5:42  -  1 mph 1011.2mb 68f
5:24 3 5 mph 1011.2mb 68f
5:00 3 5 mph 1011.1mb 68f
4:54 5 6 mph 1011.1mb 67f
4:48 5 6 mph 1011.2mb 67f
4:42 3 5 mph 1011.2mb 67f
4:36 2 3 mph 1011.2mb 66f
4:18  -  1 mph 1011.5mb 66f
4:06 2 3 mph 1011.8mb 66f
4:00 2 3 mph 1011.7mb 66f
3:54 1 2 mph 1011.5mb 66f
3:48  -  1 mph 1011.3mb 65f
3:36 2 5 mph 1011.3mb 65f
3:30 5
mph
1011.2mb 65f
3:18 6 7 mph 1011.2mb 65f
3:06 7
mph
1010.5mb 66f
2:42 2 3 mph 1010.4mb 68f
2:36 3 5 mph 1010.2mb 68f
2:30 5 6 mph 1009.9mb 68f
2:24 6
mph
1009.9mb 68f
2:00 5 6 mph - 68f
1:54 6
mph
- 69f
1:36 6 7 mph - 69f
1:30 7 9 mph - 69f
1:24 5 7 mph - 69f
1:00 7 9 mph - 70f
12:48 8 10 mph - 70f
12:42 9 11 mph - 70f
12:30 10 14 mph - 70f
12:24 11 15 mph - 70f
12:12 11 14 mph - 70f
12:06 11 15 mph - 70f
mar. 06/30 11:48  -  mph - 71f
11:42  -  mph - 72f
11:36  -  mph - 72f
11:30 3 7 mph - 73f
11:24 3 7 mph - 73f
11:06 5 6 mph - 73f
11:00 1 5 mph - 73f
10:54 2 5 mph - 73f
10:42 6
mph
- 73f
10:30 6
mph
- 73f
10:24 7 8 mph - 73f
10:12 8 10 mph - 75f
10:06 7 9 mph - 76f
10:00 5 7 mph - 76f
9:36 8 10 mph - 75f
9:30 9 13 mph - 75f
9:24 8 13 mph - 74f
9:12 10 14 mph - 72f
9:06 9 14 mph - 73f
9:00 9 13 mph - 72f
8:42 11 15 mph - 71f
8:36 15 17 mph - 71f
8:30 14 17 mph - 70f
8:24 15 17 mph - 70f
8:18 15 17 mph - 70f
8:00 18 24 mph - 72f
7:54 13 20 mph - 78f
7:48 10 11 mph - 76f
7:42 9 11 mph - 75f
7:36 7 8 mph - 75f
7:24 9 10 mph - 75f
7:12 9 11 mph - 77f
7:06 10 11 mph - 76f
6:42 11 13 mph - 74f
6:36 13 15 mph - 74f
6:30 14 16 mph - 75f
6:18 14 16 mph - 74f
6:12 13 15 mph - 74f
6:06 14 16 mph - 74f
6:00 14 16 mph - 74f
5:48 10 14 mph - 76f
5:30 5 9 mph - 75f
5:24 7 11 mph - 75f
5:18 8 13 mph - 74f
4:54 10 11 mph 1010.7mb 69f
4:48 11 15 mph 1010.7mb 68f
4:36 17 24 mph 1010.5mb 67f
3:54 18 20 mph 1014mb 69f
3:18 13 14 mph 1012mb 70f
3:00 14 15 mph 1012.1mb 69f
2:42 11 13 mph 1011.5mb 68f
2:36 10 11 mph 1011.4mb 68f
2:18 11 14 mph 1011.5mb 68f
2:12 14 15 mph 1011.5mb 68f
2:06 13 14 mph 1011.5mb 68f
2:00 13 14 mph 1011.5mb 68f
1:54 13 14 mph 1011.5mb 68f
1:42 13 14 mph 1011.3mb 68f
1:36 10 11 mph 1011.2mb 67f
1:30 10 11 mph 1011.2mb 68f
1:24 11 13 mph 1011.2mb 68f
12:54 11 13 mph 1011.5mb 69f
12:48 11
mph
1011.5mb 68f
12:06 10 11 mph 1011.8mb 69f
11:54 8 10 mph 1011.7mb 67f
11:36 6 7 mph 1011.9mb 69f
11:30 6 7 mph 1011.8mb 67f
11:18 8
mph
1011.9mb 66f
11:12 7 8 mph 1011.9mb 67f
11:00 6 7 mph 1011.6mb 67f
10:54 6
mph
1011.6mb 67f
10:30 6
mph
1012mb 69f
10:00 5 6 mph 1011.7mb 66f
9:48 6 7 mph 1011.5mb 67f
9:42 6 8 mph 1011.6mb 67f
9:36 6 7 mph 1011.8mb 68f
9:30 6 7 mph 1011.8mb 67f
8:54 7 8 mph 1011.9mb 68f
8:42 7 8 mph 1011.8mb 67f
8:36 7 8 mph 1011.8mb 67f
8:30 7 8 mph 1011.8mb 67f
8:12 5 6 mph 1011.6mb 68f
8:06 3 5 mph 1011.6mb 68f
8:00 3 5 mph 1011.7mb 68f
7:54 3 5 mph 1011.7mb 68f
7:48 3 5 mph 1011.8mb 67f
7:36 3 6 mph - 67f
7:24 3
mph
- 68f
6:48 3
mph
- 66f
6:42 2
mph
- 66f
6:30 2 3 mph 1011.5mb 66f
6:24 2 3 mph 1011.4mb 65f
6:18 3
mph
1011.3mb 65f
6:12 2 3 mph 1011.2mb 65f
6:06 2 3 mph 1011.1mb 65f
5:36 1
mph
1010.6mb 65f
5:30  -  2 mph 1010.7mb 65f
4:54 1 2 mph 1010.6mb 65f
4:48 1 2 mph 1010.6mb 65f
4:42 1 2 mph 1010.8mb 65f
4:00 2 3 mph 1010.7mb 65f
3:54 2 3 mph 1010.7mb 65f
3:48 2 3 mph 1010.8mb 65f
3:42 2 3 mph 1010.9mb 65f
3:30 2 3 mph 1010.9mb 65f
3:24 5
mph
1010.8mb 65f
3:18 5
mph
1010.8mb 65f
3:12 3 5 mph 1010.9mb 65f
3:00 3 5 mph 1010.9mb 65f
2:48 5 6 mph 1010.8mb 65f
2:42 5
mph
1011mb 65f
2:18 3
mph
1011mb 65f
2:12 3
mph
1011mb 66f
2:06 2 3 mph 1011mb 66f
2:00 2
mph
1010.9mb 67f
1:48 1 2 mph 1011mb 68f
1:36 2
mph
1011.1mb 68f
1:18 5
mph
1011.1mb 68f
1:06 6 7 mph 1011mb 68f
1:00 6 7 mph 1011.1mb 68f
12:54 6
mph
1011.2mb 68f
12:48 5 6 mph 1011.2mb 68f
12:42 3 5 mph 1011.4mb 69f
12:36 3
mph
1011.5mb 69f
12:24 3 5 mph 1011.6mb 69f
12:18 5 6 mph 1011.6mb 69f
12:06 5 6 mph 1011.5mb 69f
12:00 5 6 mph 1011.7mb 69f
lun. 06/29 11:54 5
mph
1011.7mb 69f
11:42 6
mph
- -
11:36 6
mph
- -
11:30 5 6 mph 1011.8mb 69f
11:06 5
mph
1011.9mb 69f